Time;durP1;ratioP1;P1;durP2;ratioP2;P2;SDS_P1;SDS_P2;PMS_P1;PMS_P2;Temp;Humidity;BMP_temperature;BMP_pressure;BME280_temperature;BME280_humidity;BME280_pressure;Samples;Min_cycle;Max_cycle;Signal;HPM_P1;HPM_P2
2021/08/23 00:00:07;;;;;;;12.40;11.20;;;19.10;99.90;;;;;;5074293;28;20624;-74
2021/08/23 00:02:34;;;;;;;12.30;11.20;;;19.10;99.90;;;;;;5074545;28;20457;-75
2021/08/23 00:05:05;;;;;;;13.13;12.00;;;19.10;99.90;;;;;;5074491;28;20782;-75
2021/08/23 00:07:31;;;;;;;13.00;11.80;;;19.10;99.90;;;;;;5074224;28;20945;-74
2021/08/23 00:09:58;;;;;;;16.30;11.93;;;19.10;99.90;;;;;;5074621;28;20511;-75
2021/08/23 00:12:26;;;;;;;17.20;11.80;;;19.10;99.90;;;;;;5074733;28;20489;-75
2021/08/23 00:14:53;;;;;;;13.67;12.27;;;19.10;99.90;;;;;;5074793;28;20509;-75
2021/08/23 00:17:20;;;;;;;13.37;12.20;;;19.00;99.90;;;;;;5074378;28;20465;-75
2021/08/23 00:19:47;;;;;;;12.77;11.57;;;19.00;99.90;;;;;;5074436;28;20455;-75
2021/08/23 00:22:22;;;;;;;12.33;11.13;;;19.00;99.90;;;;;;5073804;28;20911;-75
2021/08/23 00:24:53;;;;;;;13.03;11.83;;;19.00;99.90;;;;;;5074355;28;20536;-74
2021/08/23 00:27:20;;;;;;;12.67;11.47;;;18.90;99.90;;;;;;5074159;28;20438;-75
2021/08/23 00:29:47;;;;;;;14.70;12.57;;;18.90;99.90;;;;;;5074480;28;20523;-75
2021/08/23 00:32:15;;;;;;;13.27;11.97;;;18.90;99.90;;;;;;5074294;28;20500;-75
2021/08/23 00:34:41;;;;;;;14.10;12.70;;;18.90;99.90;;;;;;5074167;28;20918;-75
2021/08/23 00:37:08;;;;;;;13.73;12.50;;;18.90;99.90;;;;;;5074025;28;20886;-74
2021/08/23 00:39:38;;;;;;;14.60;13.20;;;18.90;99.90;;;;;;5074050;28;20469;-74
2021/08/23 00:42:06;;;;;;;13.23;12.03;;;18.80;99.90;;;;;;5073738;28;20478;-74
2021/08/23 00:44:33;;;;;;;12.33;11.13;;;18.90;99.90;;;;;;5074516;28;20474;-76
2021/08/23 00:47:00;;;;;;;13.07;11.87;;;18.80;99.90;;;;;;5073994;28;20922;-75
2021/08/23 00:49:27;;;;;;;13.47;11.27;;;18.90;99.90;;;;;;5074228;28;20518;-75
2021/08/23 00:51:55;;;;;;;13.07;11.70;;;18.90;99.90;;;;;;5073815;28;20519;-76
2021/08/23 00:54:22;;;;;;;13.77;12.37;;;18.90;99.90;;;;;;5073740;28;20934;-75
2021/08/23 00:56:51;;;;;;;14.27;12.77;;;18.80;99.90;;;;;;5073671;28;20851;-75
2021/08/23 00:59:19;;;;;;;13.80;12.27;;;18.90;99.90;;;;;;5074060;28;20770;-76
2021/08/23 01:01:52;;;;;;;12.70;11.50;;;18.80;99.90;;;;;;5073757;28;20466;-75
2021/08/23 01:04:27;;;;;;;13.37;12.17;;;18.80;99.90;;;;;;5074220;28;20442;-75
2021/08/23 01:06:55;;;;;;;12.83;11.63;;;18.80;99.90;;;;;;5074201;28;20509;-75
2021/08/23 01:09:23;;;;;;;16.27;12.87;;;18.70;99.90;;;;;;5074818;28;20844;-75
2021/08/23 01:11:55;;;;;;;13.23;12.10;;;18.70;99.90;;;;;;5078100;28;20477;-75
2021/08/23 01:14:22;;;;;;;15.13;13.60;;;18.70;99.90;;;;;;5077948;28;20442;-75
2021/08/23 01:16:49;;;;;;;13.33;12.00;;;18.70;99.90;;;;;;5078237;28;20469;-75
2021/08/23 01:19:18;;;;;;;12.20;11.10;;;18.70;99.90;;;;;;5077713;28;20465;-75
2021/08/23 01:21:45;;;;;;;13.07;11.83;;;18.70;99.90;;;;;;5077663;28;20462;-76
2021/08/23 01:24:12;;;;;;;13.00;11.70;;;18.60;99.90;;;;;;5077337;28;20458;-76
2021/08/23 01:26:43;;;;;;;13.37;12.13;;;18.60;99.90;;;;;;5077660;28;20473;-75
2021/08/23 01:29:16;;;;;;;13.60;12.10;;;18.60;99.90;;;;;;5077801;28;20792;-76
2021/08/23 01:31:50;;;;;;;13.60;12.30;;;18.60;99.90;;;;;;5077490;28;20528;-76
2021/08/23 01:34:19;;;;;;;13.50;12.10;;;18.50;99.90;;;;;;5077935;28;20449;-76
2021/08/23 01:36:46;;;;;;;12.77;11.40;;;18.50;99.90;;;;;;5077501;28;20461;-75
2021/08/23 01:39:12;;;;;;;13.40;12.10;;;18.50;99.90;;;;;;5077221;28;20484;-75
2021/08/23 01:41:39;;;;;;;12.40;11.20;;;18.60;99.90;;;;;;5077126;28;20453;-75
2021/08/23 01:44:08;;;;;;;13.37;12.10;;;18.60;99.90;;;;;;5076907;28;20445;-75
2021/08/23 01:46:36;;;;;;;14.20;12.77;;;18.50;99.90;;;;;;5077093;28;20734;-76
2021/08/23 01:49:07;;;;;;;14.10;12.63;;;18.50;99.90;;;;;;5077094;28;20448;-76
2021/08/23 01:51:35;;;;;;;12.30;11.17;;;18.50;99.90;;;;;;5076860;28;20915;-76
2021/08/23 01:54:04;;;;;;;13.03;11.90;;;18.50;99.90;;;;;;5077095;28;20540;-76
2021/08/23 01:56:31;;;;;;;14.33;13.00;;;18.50;99.90;;;;;;5076417;28;20458;-76
2021/08/23 01:59:02;;;;;;;14.43;13.03;;;18.60;99.90;;;;;;5077015;28;20790;-75
2021/08/23 02:01:29;;;;;;;14.80;13.37;;;18.60;99.90;;;;;;5076680;28;20438;-75
2021/08/23 02:03:56;;;;;;;14.60;13.13;;;18.60;99.90;;;;;;5077549;28;20754;-76
2021/08/23 02:06:23;;;;;;;13.70;12.43;;;18.50;99.90;;;;;;5076994;28;20466;-74
2021/08/23 02:08:52;;;;;;;13.43;12.23;;;18.50;99.90;;;;;;5076610;28;20484;-74
2021/08/23 02:11:20;;;;;;;14.87;13.40;;;18.50;99.90;;;;;;5076748;28;20462;-73
2021/08/23 02:13:47;;;;;;;12.73;11.60;;;18.50;99.90;;;;;;5076509;28;20513;-74
2021/08/23 02:16:13;;;;;;;13.03;11.93;;;18.50;99.90;;;;;;5076437;28;20458;-74
2021/08/23 02:18:40;;;;;;;11.53;10.53;;;18.50;99.90;;;;;;5076323;28;20454;-74
2021/08/23 02:21:07;;;;;;;12.87;11.57;;;18.50;99.90;;;;;;5076334;28;20473;-74
2021/08/23 02:23:33;;;;;;;11.83;10.80;;;18.50;99.90;;;;;;5077594;28;20469;-74
2021/08/23 02:26:02;;;;;;;11.63;10.53;;;18.50;99.90;;;;;;5076842;28;20537;-74
2021/08/23 02:28:29;;;;;;;11.03;10.13;;;18.50;99.90;;;;;;5077255;28;20469;-74
2021/08/23 02:30:57;;;;;;;10.13;9.23;;;18.50;99.90;;;;;;5076144;28;20462;-74
2021/08/23 02:33:24;;;;;;;9.60;8.70;;;18.40;99.90;;;;;;5076169;28;20492;-75
2021/08/23 02:35:52;;;;;;;8.80;7.60;;;18.40;99.90;;;;;;5076487;28;20462;-74
2021/08/23 02:38:19;;;;;;;8.20;7.60;;;18.40;99.90;;;;;;5076249;28;20454;-74
2021/08/23 02:40:46;;;;;;;8.20;7.40;;;18.40;99.90;;;;;;5075736;28;20918;-74
2021/08/23 02:43:14;;;;;;;7.60;7.00;;;18.30;99.90;;;;;;5075645;28;20485;-74
2021/08/23 02:45:40;;;;;;;7.80;7.17;;;18.30;99.90;;;;;;5076133;28;20454;-74
2021/08/23 02:48:07;;;;;;;6.47;5.93;;;18.30;99.90;;;;;;5076017;28;20450;-74
2021/08/23 02:50:34;;;;;;;5.40;5.00;;;18.30;99.90;;;;;;5075712;28;20454;-74
2021/08/23 02:53:00;;;;;;;5.50;5.03;;;18.20;99.90;;;;;;5075779;28;20485;-73
2021/08/23 02:55:27;;;;;;;16.23;4.87;;;18.20;99.90;;;;;;5076045;28;20454;-73
2021/08/23 02:57:54;;;;;;;4.47;4.00;;;18.20;99.90;;;;;;5075490;28;20545;-74
2021/08/23 03:00:22;;;;;;;4.33;3.93;;;18.20;99.90;;;;;;5075902;28;20770;-74
2021/08/23 03:02:49;;;;;;;4.23;3.90;;;18.20;99.90;;;;;;5075840;28;20454;-74
2021/08/23 03:05:15;;;;;;;4.30;4.00;;;18.10;99.90;;;;;;5075324;28;20450;-74
2021/08/23 03:07:42;;;;;;;3.60;3.40;;;18.20;99.90;;;;;;5075834;28;20902;-74
2021/08/23 03:10:09;;;;;;;5.43;4.23;;;18.10;99.90;;;;;;5075275;28;20918;-74
2021/08/23 03:12:36;;;;;;;4.03;3.73;;;18.10;99.90;;;;;;5075505;28;20478;-74
2021/08/23 03:15:03;;;;;;;4.10;3.80;;;18.10;99.90;;;;;;5075624;28;20462;-74
2021/08/23 03:17:33;;;;;;;4.63;4.30;;;18.10;99.90;;;;;;5075665;28;20527;-74
2021/08/23 03:19:59;;;;;;;5.60;5.10;;;18.00;99.90;;;;;;5075361;28;20458;-74
2021/08/23 03:22:26;;;;;;;6.17;5.67;;;18.00;99.90;;;;;;5075382;28;20454;-74
2021/08/23 03:24:53;;;;;;;6.30;5.70;;;18.00;99.90;;;;;;5075592;28;20462;-74
2021/08/23 03:27:20;;;;;;;6.97;6.40;;;17.90;99.90;;;;;;5075554;28;20488;-74
2021/08/23 03:29:50;;;;;;;7.30;6.70;;;17.90;99.90;;;;;;5075658;28;20458;-74
2021/08/23 03:32:17;;;;;;;7.87;7.07;;;17.80;99.90;;;;;;5074983;28;20479;-74
2021/08/23 03:34:45;;;;;;;8.90;8.20;;;17.80;99.90;;;;;;5074235;28;20799;-74
2021/08/23 03:37:12;;;;;;;8.20;7.50;;;17.70;99.90;;;;;;5075291;28;20485;-73
2021/08/23 03:39:39;;;;;;;9.37;8.47;;;17.70;99.90;;;;;;5075590;28;20519;-74
2021/08/23 03:42:05;;;;;;;8.33;7.63;;;17.60;99.90;;;;;;5075401;28;20820;-74
2021/08/23 03:44:32;;;;;;;8.43;7.73;;;17.60;99.90;;;;;;5074644;28;20462;-74
2021/08/23 03:46:59;;;;;;;9.60;8.77;;;17.60;99.90;;;;;;5074795;28;20515;-74
2021/08/23 03:49:26;;;;;;;8.80;8.00;;;17.60;99.90;;;;;;5075051;28;20489;-74
2021/08/23 03:51:54;;;;;;;8.83;8.00;;;17.60;99.90;;;;;;5074935;28;20465;-74
2021/08/23 03:54:20;;;;;;;9.70;8.90;;;17.60;99.90;;;;;;5074755;28;20505;-74
2021/08/23 03:56:47;;;;;;;10.50;9.60;;;17.60;99.90;;;;;;5074882;28;20458;-74
2021/08/23 03:59:14;;;;;;;9.83;9.00;;;17.60;99.90;;;;;;5075242;28;20554;-74
2021/08/23 04:01:40;;;;;;;9.00;8.20;;;17.60;99.90;;;;;;5074628;28;20458;-74
2021/08/23 04:04:07;;;;;;;8.50;7.80;;;17.60;99.90;;;;;;5074495;28;20549;-74
2021/08/23 04:06:34;;;;;;;8.63;7.67;;;17.60;99.90;;;;;;5074522;28;20458;-74
2021/08/23 04:09:02;;;;;;;8.70;8.00;;;17.50;99.90;;;;;;5074758;28;20934;-74
2021/08/23 04:11:29;;;;;;;8.60;7.90;;;17.50;99.90;;;;;;5074583;28;20486;-74
2021/08/23 04:13:55;;;;;;;9.00;8.17;;;17.40;99.90;;;;;;5074816;28;20478;-74
2021/08/23 04:16:22;;;;;;;7.70;7.07;;;17.40;99.90;;;;;;5074200;28;20477;-74
2021/08/23 04:18:49;;;;;;;7.10;6.40;;;17.40;99.90;;;;;;5074439;28;20469;-74
2021/08/23 04:21:15;;;;;;;7.27;6.57;;;17.40;99.90;;;;;;5074173;28;20484;-74
2021/08/23 04:23:42;;;;;;;9.00;6.70;;;17.30;99.90;;;;;;5074371;28;20458;-74
2021/08/23 04:26:10;;;;;;;6.43;5.70;;;17.30;99.90;;;;;;5074460;28;20462;-74
2021/08/23 04:28:37;;;;;;;7.17;6.47;;;17.30;99.90;;;;;;5074107;28;20465;-74
2021/08/23 04:31:03;;;;;;;6.63;5.77;;;17.20;99.90;;;;;;5074496;28;20450;-73
2021/08/23 04:33:30;;;;;;;6.00;5.50;;;17.20;99.90;;;;;;5074440;28;20483;-74
2021/08/23 04:35:57;;;;;;;5.37;4.90;;;17.20;99.90;;;;;;5074351;28;20458;-74
2021/08/23 04:38:24;;;;;;;5.40;4.70;;;17.20;99.90;;;;;;5074368;28;20477;-73
2021/08/23 04:40:51;;;;;;;5.50;5.00;;;17.20;99.90;;;;;;5074759;28;20458;-73
2021/08/23 04:43:19;;;;;;;5.50;4.53;;;17.10;99.90;;;;;;5074057;28;20486;-74
2021/08/23 04:45:45;;;;;;;6.43;5.50;;;17.10;99.90;;;;;;5073514;28;20487;-74
2021/08/23 04:48:12;;;;;;;5.93;4.80;;;17.10;99.90;;;;;;5074133;28;20535;-73
2021/08/23 04:50:39;;;;;;;4.83;4.03;;;17.10;99.90;;;;;;5074036;28;20457;-74
2021/08/23 04:53:05;;;;;;;10.23;8.77;;;17.10;99.90;;;;;;5073719;28;20950;-74
2021/08/23 04:55:32;;;;;;;5.40;4.40;;;17.00;99.90;;;;;;5074240;28;20454;-74
2021/08/23 04:57:59;;;;;;;4.93;4.43;;;16.90;99.90;;;;;;5074102;28;20587;-74
2021/08/23 05:00:27;;;;;;;4.00;3.60;;;16.90;99.90;;;;;;5075060;28;20462;-74
2021/08/23 05:02:54;;;;;;;7.20;4.53;;;16.90;99.90;;;;;;5074800;28;20461;-74
2021/08/23 05:05:21;;;;;;;4.20;3.90;;;16.80;99.90;;;;;;5074474;28;20458;-74
2021/08/23 05:07:48;;;;;;;5.30;4.80;;;16.80;99.90;;;;;;5074030;28;20450;-74
2021/08/23 05:10:14;;;;;;;5.03;4.00;;;16.80;99.90;;;;;;5074310;28;20469;-74
2021/08/23 05:12:41;;;;;;;5.87;4.40;;;16.80;99.90;;;;;;5073925;28;20893;-74
2021/08/23 05:15:09;;;;;;;4.50;3.83;;;16.80;99.90;;;;;;5074207;28;20512;-73
2021/08/23 05:17:37;;;;;;;4.93;3.70;;;16.80;99.90;;;;;;5074183;28;20469;-74
2021/08/23 05:20:05;;;;;;;6.50;4.30;;;16.80;99.90;;;;;;5073576;28;20465;-74
2021/08/23 05:22:33;;;;;;;4.20;3.53;;;16.80;99.90;;;;;;5073588;28;20918;-74
2021/08/23 05:25:01;;;;;;;3.97;3.67;;;16.80;99.90;;;;;;5073943;28;20486;-74
2021/08/23 05:27:28;;;;;;;4.40;3.80;;;16.80;99.90;;;;;;5073971;28;20887;-74
2021/08/23 05:29:55;;;;;;;4.53;3.60;;;16.80;99.90;;;;;;5073963;28;20462;-74
2021/08/23 05:32:21;;;;;;;2.93;2.73;;;16.80;99.90;;;;;;5074134;28;20458;-74
2021/08/23 05:34:49;;;;;;;3.63;3.30;;;16.80;99.90;;;;;;5074318;28;20537;-75
2021/08/23 05:37:16;;;;;;;3.80;3.10;;;16.80;99.90;;;;;;5074021;28;20450;-74
2021/08/23 05:39:43;;;;;;;5.33;4.00;;;16.80;99.90;;;;;;5074346;28;20661;-74
2021/08/23 05:42:10;;;;;;;4.30;3.30;;;16.80;99.90;;;;;;5073222;28;20573;-74
2021/08/23 05:44:37;;;;;;;4.67;3.57;;;16.80;99.90;;;;;;5073751;28;20921;-74
2021/08/23 05:47:04;;;;;;;4.30;3.13;;;16.80;99.90;;;;;;5074298;28;20573;-75
2021/08/23 05:49:31;;;;;;;4.23;3.67;;;16.80;99.90;;;;;;5074231;28;20752;-75
2021/08/23 05:51:59;;;;;;;7.30;4.43;;;16.80;99.90;;;;;;5074119;28;20450;-75
2021/08/23 05:54:26;;;;;;;5.07;3.77;;;16.90;99.90;;;;;;5074489;28;20493;-74
2021/08/23 05:56:53;;;;;;;3.73;3.17;;;16.90;99.90;;;;;;5074960;28;20484;-74
2021/08/23 05:59:20;;;;;;;3.70;3.40;;;16.90;99.90;;;;;;5077352;28;20457;-74
2021/08/23 06:01:47;;;;;;;4.03;3.57;;;16.90;99.90;;;;;;5077041;28;20458;-74
2021/08/23 06:04:13;;;;;;;5.87;3.70;;;16.90;99.90;;;;;;5077002;28;20465;-74
2021/08/23 06:06:40;;;;;;;6.17;4.53;;;16.90;99.90;;;;;;5076859;28;20776;-74
2021/08/23 06:09:08;;;;;;;4.43;3.10;;;16.90;99.90;;;;;;5077396;28;20462;-74
2021/08/23 06:11:35;;;;;;;3.70;3.20;;;16.90;99.90;;;;;;5078634;28;20458;-75
2021/08/23 06:14:01;;;;;;;4.43;4.00;;;16.90;99.90;;;;;;5077820;28;20547;-77
2021/08/23 06:16:28;;;;;;;6.57;3.90;;;17.00;99.90;;;;;;5078141;28;20937;-75
2021/08/23 06:18:55;;;;;;;3.53;3.20;;;17.00;99.90;;;;;;5077213;28;20462;-74
2021/08/23 06:21:21;;;;;;;4.17;3.47;;;17.00;99.90;;;;;;5076962;28;20458;-75
2021/08/23 06:23:48;;;;;;;7.70;4.00;;;17.00;99.90;;;;;;5077288;28;20766;-74
2021/08/23 06:26:16;;;;;;;6.57;3.63;;;17.00;99.90;;;;;;5077638;28;20465;-77
2021/08/23 06:28:43;;;;;;;4.57;4.00;;;17.00;99.90;;;;;;5077089;28;20466;-75
2021/08/23 06:31:10;;;;;;;3.50;3.10;;;17.10;99.90;;;;;;5077339;28;20507;-77
2021/08/23 06:33:37;;;;;;;4.70;3.17;;;17.20;99.90;;;;;;5077466;28;20485;-74
2021/08/23 06:36:04;;;;;;;3.70;3.20;;;17.20;99.90;;;;;;5076631;28;20462;-74
2021/08/23 06:38:31;;;;;;;2.90;2.70;;;17.20;99.90;;;;;;5077572;28;20596;-76
2021/08/23 06:40:58;;;;;;;3.43;2.83;;;17.30;99.90;;;;;;5076888;28;20481;-75
2021/08/23 06:43:26;;;;;;;4.30;3.90;;;17.30;99.90;;;;;;5076402;28;20516;-76
2021/08/23 06:45:53;;;;;;;3.30;3.00;;;17.30;99.90;;;;;;5076355;28;20458;-74
2021/08/23 06:48:20;;;;;;;2.90;2.60;;;17.40;99.90;;;;;;5076226;28;20469;-73
2021/08/23 06:50:47;;;;;;;4.53;3.43;;;17.40;99.90;;;;;;5075950;28;20907;-77
2021/08/23 06:53:13;;;;;;;3.90;3.10;;;17.50;99.90;;;;;;5076731;28;20524;-76
2021/08/23 06:55:40;;;;;;;3.50;3.20;;;17.50;99.90;;;;;;5076536;28;20454;-75
2021/08/23 06:58:07;;;;;;;4.87;3.30;;;17.50;99.90;;;;;;5077094;28;20455;-76
2021/08/23 07:00:35;;;;;;;3.27;3.07;;;17.50;99.90;;;;;;5075801;28;20930;-75
2021/08/23 07:03:02;;;;;;;3.60;3.07;;;17.50;99.90;;;;;;5076418;28;20455;-75
2021/08/23 07:05:29;;;;;;;6.30;3.20;;;17.60;99.90;;;;;;5075941;28;20899;-75
2021/08/23 07:07:56;;;;;;;3.33;2.80;;;17.70;99.90;;;;;;5076006;28;20755;-75
2021/08/23 07:10:23;;;;;;;3.33;3.03;;;17.70;99.90;;;;;;5075596;28;20454;-76
2021/08/23 07:12:49;;;;;;;3.73;3.10;;;17.70;99.90;;;;;;5075686;28;20458;-74
2021/08/23 07:15:16;;;;;;;3.27;3.00;;;17.80;99.90;;;;;;5075137;28;20481;-75
2021/08/23 07:17:46;;;;;;;6.00;3.23;;;17.80;99.90;;;;;;5075383;28;20469;-75
2021/08/23 07:20:13;;;;;;;3.50;3.20;;;17.80;99.90;;;;;;5075130;28;20469;-75
2021/08/23 07:22:40;;;;;;;3.93;3.57;;;17.80;99.90;;;;;;5075379;28;20465;-75
2021/08/23 07:25:08;;;;;;;4.40;3.10;;;17.70;99.90;;;;;;5075236;28;20613;-75
2021/08/23 07:27:35;;;;;;;4.60;3.00;;;17.70;99.90;;;;;;5074955;28;20867;-75
2021/08/23 07:30:03;;;;;;;3.67;3.20;;;17.80;99.90;;;;;;5075423;28;20845;-75
2021/08/23 07:32:29;;;;;;;3.60;2.50;;;17.80;99.90;;;;;;5075287;28;20466;-76
2021/08/23 07:34:58;;;;;;;4.10;3.70;;;17.70;99.90;;;;;;5074923;28;20485;-75
2021/08/23 07:37:25;;;;;;;4.20;3.13;;;17.70;99.90;;;;;;5075177;28;20458;-75
2021/08/23 07:39:52;;;;;;;3.90;2.83;;;17.70;99.90;;;;;;5075238;28;20469;-75
2021/08/23 07:42:19;;;;;;;3.80;3.10;;;17.70;99.90;;;;;;5074726;28;20485;-75
2021/08/23 07:44:46;;;;;;;3.57;2.80;;;17.70;99.90;;;;;;5075306;28;20576;-76
2021/08/23 07:47:12;;;;;;;3.80;2.60;;;17.70;99.90;;;;;;5075455;28;20861;-76
2021/08/23 07:49:39;;;;;;;9.87;3.07;;;17.70;99.90;;;;;;5075445;28;20454;-77
2021/08/23 07:52:07;;;;;;;3.90;2.60;;;17.80;99.90;;;;;;5075512;28;20455;-76
2021/08/23 07:54:36;;;;;;;3.07;2.77;;;17.80;99.90;;;;;;5075908;28;20589;-77
2021/08/23 07:57:03;;;;;;;3.40;2.83;;;17.70;99.90;;;;;;5075515;28;20466;-76
2021/08/23 07:59:30;;;;;;;3.33;2.87;;;17.70;99.90;;;;;;5075640;28;20469;-75
2021/08/23 08:01:57;;;;;;;3.80;3.10;;;17.70;99.90;;;;;;5075348;28;20454;-77
2021/08/23 08:04:24;;;;;;;3.60;2.83;;;17.70;99.90;;;;;;5075806;28;20469;-76
2021/08/23 08:06:52;;;;;;;3.00;2.70;;;17.60;99.90;;;;;;5075323;28;20721;-76
2021/08/23 08:09:21;;;;;;;5.27;3.30;;;17.60;99.90;;;;;;5075250;28;20454;-75
2021/08/23 08:11:47;;;;;;;2.90;2.70;;;17.70;99.90;;;;;;5074626;28;20453;-75
2021/08/23 08:14:14;;;;;;;3.33;2.23;;;17.70;99.90;;;;;;5074345;28;20992;-75
2021/08/23 08:16:41;;;;;;;5.60;2.33;;;17.70;99.90;;;;;;5074798;28;20495;-76
2021/08/23 08:19:08;;;;;;;6.70;2.50;;;17.80;99.90;;;;;;5074011;28;20455;-75
2021/08/23 08:21:34;;;;;;;3.03;2.23;;;17.70;99.90;;;;;;5074393;28;20458;-76
2021/08/23 08:24:01;;;;;;;6.93;3.30;;;17.70;99.90;;;;;;5074531;28;20461;-78
2021/08/23 08:26:29;;;;;;;4.50;3.23;;;17.70;99.90;;;;;;5074561;28;20467;-76
2021/08/23 08:28:56;;;;;;;2.60;2.40;;;17.60;99.90;;;;;;5074465;28;20461;-75
2021/08/23 08:31:22;;;;;;;4.03;2.90;;;17.60;99.90;;;;;;5074166;28;20907;-75
2021/08/23 08:33:49;;;;;;;4.73;3.83;;;17.50;99.90;;;;;;5073942;28;20956;-75
2021/08/23 08:36:17;;;;;;;3.57;2.57;;;17.50;99.90;;;;;;5074119;28;20552;-75
2021/08/23 08:38:43;;;;;;;2.40;2.20;;;17.50;99.90;;;;;;5074141;28;20905;-75
2021/08/23 08:41:10;;;;;;;2.43;2.13;;;17.50;99.90;;;;;;5073933;28;20911;-74
2021/08/23 08:43:38;;;;;;;2.50;2.30;;;17.50;99.90;;;;;;5074823;28;20488;-75
2021/08/23 08:46:08;;;;;;;2.87;2.57;;;17.50;99.90;;;;;;5074648;28;20787;-75
2021/08/23 08:48:36;;;;;;;2.30;2.10;;;17.50;99.90;;;;;;5075802;28;20477;-75
2021/08/23 08:51:04;;;;;;;2.10;1.90;;;17.60;99.90;;;;;;5075490;28;20792;-75
2021/08/23 08:53:31;;;;;;;2.40;1.87;;;17.70;99.90;;;;;;5075004;28;20454;-75
2021/08/23 08:55:57;;;;;;;4.20;2.20;;;17.80;99.90;;;;;;5074349;28;20458;-75
2021/08/23 08:58:25;;;;;;;2.10;1.90;;;17.90;99.90;;;;;;5074252;28;20457;-75
2021/08/23 09:00:54;;;;;;;3.00;1.57;;;17.90;99.90;;;;;;5073932;28;20459;-75
2021/08/23 09:03:27;;;;;;;2.23;1.60;;;18.00;99.90;;;;;;5074068;28;20512;-74
2021/08/23 09:06:03;;;;;;;3.40;2.23;;;18.00;99.90;;;;;;5073549;28;20454;-75
2021/08/23 09:08:31;;;;;;;5.03;2.57;;;18.00;99.90;;;;;;5074176;28;20446;-75
2021/08/23 09:11:09;;;;;;;2.77;1.90;;;18.10;99.90;;;;;;5073979;28;20454;-75
2021/08/23 09:13:35;;;;;;;2.23;2.03;;;18.20;99.90;;;;;;5074446;28;20461;-75
2021/08/23 09:16:04;;;;;;;2.27;1.70;;;18.30;99.90;;;;;;5073471;28;20962;-75
2021/08/23 09:18:30;;;;;;;2.50;2.07;;;18.40;99.90;;;;;;5074329;28;20879;-75
2021/08/23 09:21:01;;;;;;;3.37;2.27;;;18.40;99.90;;;;;;5073983;28;20454;-76
2021/08/23 09:23:36;;;;;;;2.80;1.97;;;18.40;99.90;;;;;;5074755;28;20561;-75
2021/08/23 09:26:07;;;;;;;3.13;2.20;;;18.50;99.90;;;;;;5073695;28;20480;-75
2021/08/23 09:28:34;;;;;;;2.40;2.20;;;18.60;99.90;;;;;;5073558;28;20462;-75
2021/08/23 09:31:03;;;;;;;2.67;1.77;;;18.60;99.90;;;;;;5075232;28;20790;-75
2021/08/23 09:33:30;;;;;;;2.83;2.50;;;18.70;99.90;;;;;;5077636;28;20449;-76
2021/08/23 09:35:57;;;;;;;2.77;1.87;;;18.90;99.90;;;;;;5077250;28;20477;-75
2021/08/23 09:38:24;;;;;;;2.07;1.80;;;19.00;99.90;;;;;;5077286;28;20485;-75
2021/08/23 09:40:53;;;;;;;2.00;1.50;;;19.00;99.90;;;;;;5077370;28;20941;-75
2021/08/23 09:43:19;;;;;;;1.80;1.70;;;19.10;99.90;;;;;;5077694;28;20477;-75
2021/08/23 09:45:48;;;;;;;2.97;1.70;;;19.20;99.90;;;;;;5077899;28;20465;-75
2021/08/23 09:48:17;;;;;;;3.50;1.60;;;19.30;99.90;;;;;;5077892;28;20773;-75
2021/08/23 09:50:45;;;;;;;3.40;1.73;;;19.40;99.90;;;;;;5078186;28;20473;-75
2021/08/23 09:53:14;;;;;;;1.97;1.77;;;19.40;99.90;;;;;;5078628;28;20469;-76
2021/08/23 09:55:42;;;;;;;4.40;2.13;;;19.50;99.90;;;;;;5077603;28;20482;-74
2021/08/23 09:58:10;;;;;;;3.10;1.87;;;19.50;99.90;;;;;;5079012;28;20893;-74
2021/08/23 10:00:37;;;;;;;3.07;1.80;;;19.50;99.90;;;;;;5080225;28;20532;-74
2021/08/23 10:03:13;;;;;;;2.80;1.70;;;19.40;99.90;;;;;;5079801;28;20458;-75
2021/08/23 10:05:44;;;;;;;2.53;1.77;;;19.40;99.90;;;;;;5079646;28;20477;-74
2021/08/23 10:08:13;;;;;;;1.83;1.50;;;19.40;99.90;;;;;;5081495;28;20462;-74
2021/08/23 10:10:41;;;;;;;1.87;1.63;;;19.30;99.90;;;;;;5078722;28;20466;-74
2021/08/23 10:13:08;;;;;;;3.37;1.90;;;19.30;99.90;;;;;;5080912;28;20461;-75
2021/08/23 10:15:37;;;;;;;2.77;1.80;;;19.30;99.90;;;;;;5083905;28;20490;-73
2021/08/23 10:18:08;;;;;;;3.47;1.67;;;19.30;99.90;;;;;;5082859;28;20504;-73
2021/08/23 10:20:35;;;;;;;3.50;2.00;;;19.30;99.90;;;;;;5080833;28;20442;-74
2021/08/23 10:23:04;;;;;;;2.47;1.70;;;19.30;99.90;;;;;;5082603;28;20464;-74
2021/08/23 10:25:32;;;;;;;2.07;1.67;;;19.30;99.90;;;;;;5080030;28;20450;-74
2021/08/23 10:28:08;;;;;;;3.87;2.20;;;19.40;99.90;;;;;;5081036;28;20454;-75
2021/08/23 10:30:36;;;;;;;2.20;1.60;;;19.40;99.90;;;;;;5081214;28;20442;-75
2021/08/23 10:33:12;;;;;;;3.07;2.17;;;19.40;99.90;;;;;;5083474;28;20454;-75
2021/08/23 10:35:50;;;;;;;2.60;1.83;;;19.40;99.90;;;;;;5081561;28;20484;-75
2021/08/23 10:38:21;;;;;;;2.20;1.83;;;19.40;99.90;;;;;;5081300;28;20477;-75
2021/08/23 10:40:49;;;;;;;3.03;2.43;;;19.40;99.90;;;;;;5076703;28;20450;-75
2021/08/23 10:43:18;;;;;;;2.57;1.77;;;19.40;99.90;;;;;;5076140;28;20573;-75
2021/08/23 10:45:46;;;;;;;2.80;2.07;;;19.40;99.90;;;;;;5077332;28;20454;-75
2021/08/23 10:48:15;;;;;;;2.00;1.60;;;19.40;99.90;;;;;;5076976;28;20454;-75
2021/08/23 10:50:42;;;;;;;1.97;1.67;;;19.30;99.90;;;;;;5077395;28;20527;-76
2021/08/23 10:53:13;;;;;;;2.43;2.17;;;19.30;99.90;;;;;;5077273;28;20454;-76
2021/08/23 10:55:41;;;;;;;4.37;1.80;;;19.30;99.90;;;;;;5077207;28;20498;-75
2021/08/23 10:58:11;;;;;;;4.70;2.03;;;19.20;99.90;;;;;;5076808;28;20481;-77
2021/08/23 11:00:40;;;;;;;2.20;1.70;;;19.30;99.90;;;;;;5076845;28;20462;-77
2021/08/23 11:03:07;;;;;;;3.00;1.50;;;19.30;99.90;;;;;;5076765;28;20469;-75
2021/08/23 11:05:36;;;;;;;2.10;1.40;;;19.30;99.90;;;;;;5076357;28;20453;-76
2021/08/23 11:08:09;;;;;;;4.47;1.90;;;19.30;99.90;;;;;;5076851;28;20918;-76
2021/08/23 11:10:39;;;;;;;2.77;1.73;;;19.30;99.90;;;;;;5076264;28;20442;-74
2021/08/23 11:13:17;;;;;;;3.23;1.70;;;19.40;99.90;;;;;;5077139;28;20515;-75
2021/08/23 11:15:45;;;;;;;2.20;1.80;;;19.40;99.90;;;;;;5076136;28;20569;-75
2021/08/23 11:18:13;;;;;;;3.17;1.90;;;19.40;99.90;;;;;;5075726;28;20456;-75
2021/08/23 11:20:43;;;;;;;3.40;1.60;;;19.40;99.90;;;;;;5076714;28;20469;-75
2021/08/23 11:23:11;;;;;;;7.63;2.30;;;19.50;99.90;;;;;;5076245;28;20768;-75
2021/08/23 11:25:41;;;;;;;3.60;2.20;;;19.50;99.90;;;;;;5076022;28;20458;-75
2021/08/23 11:28:10;;;;;;;3.80;1.80;;;19.50;99.90;;;;;;5077307;28;20489;-76
2021/08/23 11:30:40;;;;;;;3.40;2.00;;;19.50;99.90;;;;;;5076303;28;20527;-74
2021/08/23 11:33:09;;;;;;;6.50;3.70;;;19.60;99.90;;;;;;5080012;28;20571;-74
2021/08/23 11:35:36;;;;;;;9.10;3.60;;;19.60;99.90;;;;;;5079131;28;20474;-76
2021/08/23 11:38:05;;;;;;;2.33;1.60;;;19.70;99.90;;;;;;5079363;28;20469;-75
2021/08/23 11:40:34;;;;;;;3.67;1.73;;;19.80;99.90;;;;;;5080158;28;20450;-75
2021/08/23 11:43:04;;;;;;;4.03;1.93;;;19.90;99.90;;;;;;5080022;28;20520;-75
2021/08/23 11:45:33;;;;;;;3.00;1.83;;;20.00;99.90;;;;;;5079953;28;20446;-75
2021/08/23 11:48:02;;;;;;;5.60;2.07;;;20.10;99.90;;;;;;5079549;28;20461;-76
2021/08/23 11:50:29;;;;;;;4.57;1.67;;;20.20;99.90;;;;;;5078334;28;20568;-75
2021/08/23 11:53:03;;;;;;;2.50;2.00;;;20.30;99.90;;;;;;5080014;28;20781;-75
2021/08/23 11:55:33;;;;;;;3.33;2.50;;;20.30;99.90;;;;;;5079471;28;20489;-75
2021/08/23 11:58:02;;;;;;;2.47;1.87;;;20.40;99.90;;;;;;5079828;28;20493;-75
2021/08/23 12:00:30;;;;;;;2.73;1.83;;;20.40;99.90;;;;;;5079252;28;20462;-75
2021/08/23 12:03:10;;;;;;;3.80;2.17;;;20.40;99.90;;;;;;5079282;28;20890;-75
2021/08/23 12:05:39;;;;;;;2.13;1.63;;;20.50;99.90;;;;;;5081285;28;20439;-74
2021/08/23 12:08:07;;;;;;;2.53;2.10;;;20.60;99.90;;;;;;5081506;28;20903;-74
2021/08/23 12:10:38;;;;;;;4.03;2.40;;;20.70;99.90;;;;;;5075662;28;20540;-74
2021/08/23 12:13:14;;;;;;;4.10;2.23;;;20.70;99.90;;;;;;5075502;28;20779;-75
2021/08/23 12:15:57;;;;;;;3.80;2.07;;;20.80;99.90;;;;;;5075949;28;20783;-75
2021/08/23 12:18:36;;;;;;;3.60;2.53;;;20.90;99.90;;;;;;5074792;28;20532;-74
2021/08/23 12:21:15;;;;;;;3.70;2.20;;;20.90;99.90;;;;;;5075533;28;20457;-75
2021/08/23 12:23:50;;;;;;;5.63;2.00;;;21.00;99.90;;;;;;5075570;28;20434;-74
2021/08/23 12:26:17;;;;;;;3.70;1.93;;;21.10;99.90;;;;;;5075035;28;20446;-75
2021/08/23 12:28:48;;;;;;;2.90;1.80;;;21.20;99.90;;;;;;5075023;28;20458;-74
2021/08/23 12:31:15;;;;;;;1.97;1.77;;;21.20;99.90;;;;;;5074274;28;20570;-74
2021/08/23 12:33:43;;;;;;;1.97;1.67;;;21.30;99.90;;;;;;5074559;28;20507;-74
2021/08/23 12:36:10;;;;;;;3.10;2.17;;;21.40;99.90;;;;;;5074505;28;20496;-74
2021/08/23 12:38:37;;;;;;;4.47;2.10;;;21.40;99.90;;;;;;5074783;28;20505;-74
2021/08/23 12:41:05;;;;;;;4.97;2.20;;;21.50;99.90;;;;;;5073982;28;20526;-74
2021/08/23 12:43:35;;;;;;;2.40;1.70;;;21.50;99.90;;;;;;5073846;28;20474;-74
2021/08/23 12:46:03;;;;;;;3.87;2.30;;;21.50;99.90;;;;;;5074166;28;20768;-74